createdAt,value
2017-09-25T00:01:13.994Z,99.90
2017-09-25T00:03:42.267Z,99.90
2017-09-25T00:06:11.180Z,99.90
2017-09-25T00:08:38.726Z,99.90
2017-09-25T00:11:06.250Z,99.90
2017-09-25T00:13:33.851Z,99.90
2017-09-25T00:16:01.374Z,99.90
2017-09-25T00:18:28.974Z,99.90
2017-09-25T00:20:57.408Z,99.90
2017-09-25T00:23:24.916Z,99.90
2017-09-25T00:25:52.418Z,99.90
2017-09-25T00:28:20.698Z,99.90
2017-09-25T00:30:48.204Z,99.90
2017-09-25T00:33:15.727Z,99.90
2017-09-25T00:35:43.999Z,99.90
2017-09-25T00:38:12.259Z,99.90
2017-09-25T00:40:39.767Z,99.90
2017-09-25T00:43:07.291Z,99.90
2017-09-25T00:45:35.571Z,99.90
2017-09-25T00:48:03.864Z,99.90
2017-09-25T00:50:32.137Z,99.90
2017-09-25T00:53:12.330Z,99.90
2017-09-25T00:55:50.817Z,99.90
2017-09-25T00:58:18.443Z,99.90
2017-09-25T01:00:57.786Z,99.90
2017-09-25T01:03:35.739Z,99.90
2017-09-25T01:06:15.373Z,99.90
2017-09-25T01:08:42.899Z,99.90
2017-09-25T01:11:11.170Z,99.90
2017-09-25T01:13:39.458Z,99.90
2017-09-25T01:16:07.749Z,99.90
2017-09-25T01:18:35.270Z,99.90
2017-09-25T01:21:02.872Z,99.90
2017-09-25T01:23:30.422Z,99.90
2017-09-25T01:25:58.034Z,99.90
2017-09-25T01:28:25.543Z,99.90
2017-09-25T01:30:53.067Z,99.90
2017-09-25T01:33:20.575Z,99.90
2017-09-25T01:35:48.095Z,99.90
2017-09-25T01:38:16.435Z,99.90
2017-09-25T01:40:44.065Z,99.90
2017-09-25T01:43:11.577Z,99.90
2017-09-25T01:45:39.102Z,99.90
2017-09-25T01:48:06.603Z,99.90
2017-09-25T01:50:34.891Z,99.90
2017-09-25T01:53:03.162Z,99.90
2017-09-25T01:55:31.452Z,99.90
2017-09-25T01:57:58.963Z,99.90
2017-09-25T02:00:26.486Z,99.90
2017-09-25T02:02:54.087Z,99.90
2017-09-25T02:05:22.375Z,99.90
2017-09-25T02:07:50.646Z,99.90
2017-09-25T02:10:18.148Z,99.90
2017-09-25T02:12:45.666Z,99.90
2017-09-25T02:15:13.257Z,99.90
2017-09-25T02:17:40.781Z,99.90
2017-09-25T02:20:09.109Z,99.90
2017-09-25T02:22:36.635Z,99.90
2017-09-25T02:25:04.910Z,99.90
2017-09-25T02:27:33.303Z,99.90
2017-09-25T02:30:00.811Z,99.90
2017-09-25T02:32:28.335Z,99.90
2017-09-25T02:34:55.835Z,99.90
2017-09-25T02:37:23.359Z,99.90
2017-09-25T02:39:51.563Z,99.90
2017-09-25T02:42:19.088Z,99.90
2017-09-25T02:44:46.596Z,99.90
2017-09-25T02:47:14.963Z,99.90
2017-09-25T02:49:42.471Z,99.90
2017-09-25T02:52:10.003Z,99.90
2017-09-25T02:54:38.274Z,99.90
2017-09-25T02:57:06.546Z,99.90
2017-09-25T02:59:34.834Z,99.90
2017-09-25T03:02:03.842Z,99.90
2017-09-25T03:04:31.370Z,99.90
2017-09-25T03:06:59.647Z,99.90
2017-09-25T03:09:27.937Z,99.90
2017-09-25T03:11:56.216Z,99.90
2017-09-25T03:14:23.743Z,99.90
2017-09-25T03:16:51.248Z,99.90
2017-09-25T03:19:18.801Z,99.90
2017-09-25T03:21:46.307Z,99.90
2017-09-25T03:24:13.830Z,99.90
2017-09-25T03:26:41.344Z,99.90
2017-09-25T03:29:08.947Z,99.90
2017-09-25T03:31:36.451Z,99.90
2017-09-25T03:34:03.975Z,99.90
2017-09-25T03:36:31.663Z,99.90
2017-09-25T03:38:59.202Z,99.90
2017-09-25T03:41:26.819Z,99.90
2017-09-25T03:43:55.183Z,99.90
2017-09-25T03:46:24.179Z,99.90
2017-09-25T03:48:52.461Z,99.90
2017-09-25T03:51:20.747Z,99.90
2017-09-25T03:53:48.252Z,99.90
2017-09-25T03:56:15.779Z,99.90
2017-09-25T03:58:43.286Z,99.90
2017-09-25T04:01:10.814Z,99.90
2017-09-25T04:03:38.331Z,99.90
2017-09-25T04:06:06.618Z,99.90
2017-09-25T04:08:34.126Z,99.90
2017-09-25T04:11:01.647Z,99.90
2017-09-25T04:13:29.151Z,99.90
2017-09-25T04:15:56.766Z,99.90
2017-09-25T04:18:24.270Z,99.90
2017-09-25T04:20:51.782Z,99.90
2017-09-25T04:23:19.306Z,99.90
2017-09-25T04:25:47.576Z,99.90
2017-09-25T04:28:15.867Z,99.90
2017-09-25T04:30:44.139Z,99.90
2017-09-25T04:33:12.436Z,99.90
2017-09-25T04:35:39.950Z,99.90
2017-09-25T04:38:07.546Z,99.90
2017-09-25T04:40:35.050Z,99.90
2017-09-25T04:43:02.570Z,99.90
2017-09-25T04:45:30.083Z,99.90
2017-09-25T04:47:57.607Z,99.90
2017-09-25T04:50:25.115Z,99.90
2017-09-25T04:52:53.402Z,99.90
2017-09-25T04:55:21.667Z,99.90
2017-09-25T04:57:49.946Z,99.90
2017-09-25T05:00:18.217Z,99.90
2017-09-25T05:02:46.503Z,99.90
2017-09-25T05:05:14.806Z,99.90
2017-09-25T05:07:42.338Z,99.90
2017-09-25T05:10:10.623Z,99.90
2017-09-25T05:12:38.131Z,99.90
2017-09-25T05:15:05.742Z,99.90
2017-09-25T05:17:33.283Z,99.90
2017-09-25T05:20:01.674Z,99.90
2017-09-25T05:22:29.939Z,99.90
2017-09-25T05:24:58.329Z,99.90
2017-09-25T05:27:26.610Z,99.90
2017-09-25T05:29:54.126Z,99.90
2017-09-25T05:32:21.627Z,99.90
2017-09-25T05:34:49.146Z,99.90
2017-09-25T05:37:18.150Z,99.90
2017-09-25T05:39:45.738Z,99.90
2017-09-25T05:42:13.278Z,99.90
2017-09-25T05:44:41.571Z,99.90
2017-09-25T05:47:09.479Z,99.90
2017-09-25T05:49:36.999Z,99.90
2017-09-25T05:52:04.502Z,99.90
2017-09-25T05:54:32.028Z,99.90
2017-09-25T05:56:59.531Z,99.90
2017-09-25T05:59:27.030Z,99.90
2017-09-25T06:01:54.556Z,99.90
2017-09-25T06:04:22.836Z,99.90
2017-09-25T06:06:51.123Z,99.90
2017-09-25T06:09:28.251Z,99.90
2017-09-25T06:11:55.770Z,99.90
2017-09-25T06:14:24.124Z,99.90
2017-09-25T06:16:51.647Z,99.90
2017-09-25T06:19:20.150Z,99.90
2017-09-25T06:21:47.671Z,99.90
2017-09-25T06:24:15.318Z,99.90
2017-09-25T06:26:42.844Z,99.90
2017-09-25T06:29:10.346Z,99.90
2017-09-25T06:31:38.000Z,99.90
2017-09-25T06:34:05.506Z,99.90
2017-09-25T06:36:33.227Z,99.90
2017-09-25T06:39:00.730Z,99.90
2017-09-25T06:41:28.250Z,99.90
2017-09-25T06:43:56.517Z,99.90
2017-09-25T06:46:24.063Z,99.90
2017-09-25T06:48:51.573Z,99.90
2017-09-25T06:51:19.080Z,99.90
2017-09-25T06:53:46.602Z,99.90
2017-09-25T06:56:14.117Z,99.90
2017-09-25T06:58:41.639Z,99.90
2017-09-25T07:01:09.907Z,99.90
2017-09-25T07:03:38.375Z,99.90
2017-09-25T07:06:07.496Z,99.90
2017-09-25T07:08:35.786Z,99.90
2017-09-25T07:11:03.286Z,99.90
2017-09-25T07:13:30.907Z,99.90
2017-09-25T07:15:58.412Z,99.90
2017-09-25T07:18:26.015Z,99.90
2017-09-25T07:20:53.532Z,99.90
2017-09-25T07:23:21.059Z,99.90
2017-09-25T07:25:48.600Z,99.90
2017-09-25T07:28:16.122Z,99.90
2017-09-25T07:30:44.399Z,99.90
2017-09-25T07:33:12.690Z,99.90
2017-09-25T07:35:41.722Z,99.90
2017-09-25T07:38:09.255Z,99.90
2017-09-25T07:40:36.811Z,99.90
2017-09-25T07:43:04.375Z,99.90
2017-09-25T07:45:31.883Z,99.90
2017-09-25T07:47:59.400Z,99.90
2017-09-25T07:50:26.922Z,99.90
2017-09-25T07:52:55.435Z,99.90
2017-09-25T07:55:22.963Z,99.90
2017-09-25T07:57:51.240Z,99.90
2017-09-25T08:00:19.531Z,99.90
2017-09-25T08:02:47.042Z,99.90
2017-09-25T08:05:14.565Z,99.90
2017-09-25T08:07:42.071Z,99.90
2017-09-25T08:10:09.596Z,99.90
2017-09-25T08:12:37.107Z,99.90
2017-09-25T08:15:05.400Z,99.90
2017-09-25T08:17:32.916Z,99.90
2017-09-25T08:20:01.184Z,99.90
2017-09-25T08:22:28.699Z,99.90
2017-09-25T08:24:56.258Z,99.90
2017-09-25T08:27:24.515Z,99.90
2017-09-25T08:29:52.806Z,99.90
2017-09-25T08:32:20.315Z,99.90
2017-09-25T08:34:47.935Z,99.90
2017-09-25T08:37:15.447Z,99.90
2017-09-25T08:39:43.758Z,99.90
2017-09-25T08:42:12.235Z,99.90
2017-09-25T08:44:40.564Z,99.60
2017-09-25T08:47:08.175Z,98.80
2017-09-25T08:49:35.679Z,98.60
2017-09-25T08:52:03.203Z,98.30
2017-09-25T08:54:30.737Z,97.70
2017-09-25T08:56:59.131Z,96.90
2017-09-25T08:59:26.643Z,96.90
2017-09-25T09:01:54.172Z,96.80
2017-09-25T09:04:21.683Z,96.70
2017-09-25T09:06:49.976Z,96.50
2017-09-25T09:09:17.487Z,96.40
2017-09-25T09:11:45.011Z,95.40
2017-09-25T09:14:12.668Z,95.80
2017-09-25T09:16:40.387Z,95.40
2017-09-25T09:19:08.659Z,95.00
2017-09-25T09:21:36.192Z,94.90
2017-09-25T09:24:03.699Z,94.30
2017-09-25T09:26:32.006Z,94.40
2017-09-25T09:28:59.511Z,94.40
2017-09-25T09:31:27.019Z,94.10
2017-09-25T09:33:54.559Z,93.80
2017-09-25T09:36:22.171Z,93.60
2017-09-25T09:38:49.695Z,93.00
2017-09-25T09:41:17.203Z,93.10
2017-09-25T09:43:44.735Z,93.60
2017-09-25T09:46:12.239Z,92.20
2017-09-25T09:48:39.816Z,92.60
2017-09-25T09:51:07.328Z,91.40
2017-09-25T09:53:34.855Z,92.10
2017-09-25T09:56:02.444Z,91.80
2017-09-25T09:58:29.973Z,92.50
2017-09-25T10:00:57.648Z,92.90
2017-09-25T10:03:25.177Z,92.50
2017-09-25T10:05:52.691Z,92.90
2017-09-25T10:08:20.215Z,92.40
2017-09-25T10:10:47.739Z,91.90
2017-09-25T10:13:16.267Z,92.10
2017-09-25T10:15:44.516Z,92.60
2017-09-25T10:18:12.108Z,92.10
2017-09-25T10:20:39.715Z,91.60
2017-09-25T10:23:07.219Z,91.20
2017-09-25T10:25:35.460Z,91.20
2017-09-25T10:28:03.012Z,88.20
2017-09-25T10:30:30.995Z,89.20
2017-09-25T10:32:58.534Z,89.30
2017-09-25T10:35:26.100Z,86.40
2017-09-25T10:37:53.611Z,86.60
2017-09-25T10:40:21.169Z,87.40
2017-09-25T10:42:48.680Z,89.30
2017-09-25T10:45:17.080Z,87.90
2017-09-25T10:47:44.606Z,88.10
2017-09-25T10:50:12.131Z,85.40
2017-09-25T10:52:39.635Z,84.50
2017-09-25T10:55:07.156Z,83.90
2017-09-25T10:57:35.459Z,86.70
2017-09-25T11:00:02.983Z,86.60
2017-09-25T11:02:30.487Z,87.00
2017-09-25T11:04:58.006Z,84.70
2017-09-25T11:07:26.294Z,86.10
2017-09-25T11:09:54.563Z,83.00
2017-09-25T11:12:22.856Z,82.70
2017-09-25T11:14:51.084Z,82.60
2017-09-25T11:17:19.423Z,89.00
2017-09-25T11:19:46.924Z,87.40
2017-09-25T11:22:14.444Z,86.40
2017-09-25T11:24:41.987Z,85.30
2017-09-25T11:27:09.503Z,85.40
2017-09-25T11:29:37.907Z,87.70
2017-09-25T11:32:06.314Z,87.10
2017-09-25T11:34:33.864Z,87.20
2017-09-25T11:37:01.412Z,86.10
2017-09-25T11:39:28.991Z,87.00
2017-09-25T11:41:56.535Z,86.20
2017-09-25T11:44:24.043Z,85.50
2017-09-25T11:46:51.563Z,85.20
2017-09-25T11:49:19.068Z,83.40
2017-09-25T11:51:46.587Z,86.20
2017-09-25T11:54:14.107Z,85.50
2017-09-25T11:56:42.398Z,82.40
2017-09-25T11:59:09.907Z,82.30
2017-09-25T12:01:37.436Z,82.80
2017-09-25T12:04:04.943Z,86.60
2017-09-25T12:06:32.467Z,86.50
2017-09-25T12:09:00.095Z,85.60
2017-09-25T12:11:27.619Z,84.70
2017-09-25T12:13:55.146Z,83.00
2017-09-25T12:16:22.651Z,80.30
2017-09-25T12:18:50.939Z,82.90
2017-09-25T12:21:18.504Z,82.90
2017-09-25T12:23:46.031Z,84.40
2017-09-25T12:26:13.535Z,82.60
2017-09-25T12:28:41.059Z,84.20
2017-09-25T12:31:09.330Z,83.00
2017-09-25T12:33:37.615Z,82.70
2017-09-25T12:36:05.883Z,85.20
2017-09-25T12:38:34.171Z,82.40
2017-09-25T12:41:02.439Z,77.40
2017-09-25T12:43:30.732Z,82.90
2017-09-25T12:45:58.239Z,82.90
2017-09-25T12:48:25.762Z,82.90
2017-09-25T12:50:53.259Z,77.40
2017-09-25T12:53:20.863Z,80.00
2017-09-25T12:55:48.377Z,79.80
2017-09-25T12:58:15.898Z,78.50
2017-09-25T13:00:43.402Z,83.00
2017-09-25T13:03:10.926Z,79.90
2017-09-25T13:05:38.444Z,78.60
2017-09-25T13:08:06.727Z,79.10
2017-09-25T13:10:34.235Z,79.10
2017-09-25T13:13:01.739Z,78.80
2017-09-25T13:15:29.256Z,80.80
2017-09-25T13:17:56.763Z,81.30
2017-09-25T13:20:24.292Z,78.60
2017-09-25T13:22:52.571Z,81.10
2017-09-25T13:25:21.774Z,78.40
2017-09-25T13:27:50.039Z,78.40
2017-09-25T13:30:18.408Z,78.40
2017-09-25T13:32:45.999Z,80.10
2017-09-25T13:35:14.225Z,77.60
2017-09-25T13:37:42.467Z,77.10
2017-09-25T13:40:09.979Z,77.30
2017-09-25T13:42:37.480Z,77.30
2017-09-25T13:45:07.988Z,78.40
2017-09-25T13:47:36.261Z,78.70
2017-09-25T13:50:04.565Z,80.10
2017-09-25T13:52:32.067Z,79.10
2017-09-25T13:54:59.571Z,79.40
2017-09-25T13:57:27.132Z,77.30
2017-09-25T14:02:27.652Z,79.70
2017-09-25T14:04:55.918Z,79.00
2017-09-25T14:07:23.490Z,79.00
2017-09-25T14:09:54.923Z,75.60
2017-09-25T14:12:22.494Z,75.50
2017-09-25T14:14:50.847Z,77.70
2017-09-25T14:17:18.423Z,77.70
2017-09-25T14:19:46.743Z,74.50
2017-09-25T14:22:14.311Z,73.90
2017-09-25T14:24:41.871Z,72.80
2017-09-25T14:27:09.460Z,72.80
2017-09-25T14:29:37.108Z,75.10
2017-09-25T14:32:04.781Z,77.00
2017-09-25T14:34:32.335Z,76.10
2017-09-25T14:36:59.906Z,78.60
2017-09-25T14:39:27.458Z,78.00
2017-09-25T14:41:55.218Z,75.50
2017-09-25T14:44:22.883Z,77.00
2017-09-25T14:46:51.318Z,77.90
2017-09-25T14:49:18.875Z,78.80
2017-09-25T14:51:46.431Z,79.90
2017-09-25T14:54:14.003Z,80.00
2017-09-25T14:56:42.318Z,81.90
2017-09-25T14:59:09.979Z,82.10
2017-09-25T15:01:38.440Z,82.30
2017-09-25T15:04:06.011Z,79.50
2017-09-25T15:06:33.571Z,81.60
2017-09-25T15:09:01.143Z,79.60
2017-09-25T15:11:28.799Z,79.60
2017-09-25T15:13:56.379Z,79.70
2017-09-25T15:16:24.712Z,81.20
2017-09-25T15:18:53.110Z,81.10
2017-09-25T15:21:20.755Z,82.40
2017-09-25T15:23:48.326Z,84.50
2017-09-25T15:26:15.883Z,80.00
2017-09-25T15:28:43.463Z,78.90
2017-09-25T15:31:11.027Z,79.10
2017-09-25T15:33:38.610Z,80.00
2017-09-25T15:36:06.227Z,80.40
2017-09-25T15:38:34.687Z,80.70
2017-09-25T15:41:03.092Z,79.20
2017-09-25T15:43:30.662Z,79.40
2017-09-25T15:45:58.223Z,77.30
2017-09-25T15:48:25.794Z,76.30
2017-09-25T15:50:54.150Z,72.70
2017-09-25T15:53:21.802Z,72.80
2017-09-25T15:55:49.355Z,73.30
2017-09-25T15:58:16.931Z,74.20
2017-09-25T16:00:44.580Z,73.90
2017-09-25T16:03:12.246Z,75.00
2017-09-25T16:05:39.818Z,76.40
2017-09-25T16:08:08.137Z,76.00
2017-09-25T16:10:36.039Z,76.00
2017-09-25T16:13:03.595Z,76.60
2017-09-25T16:15:31.272Z,77.60
2017-09-25T16:17:58.931Z,78.90
2017-09-25T16:20:26.507Z,79.60
2017-09-25T16:22:54.070Z,80.20
2017-09-25T16:25:22.423Z,80.40
2017-09-25T16:27:49.978Z,80.30
2017-09-25T16:30:17.551Z,80.60
2017-09-25T16:32:45.107Z,81.20
2017-09-25T16:35:12.683Z,81.00
2017-09-25T16:37:41.110Z,83.30
2017-09-25T16:40:08.682Z,83.20
2017-09-25T16:42:36.243Z,83.60
2017-09-25T16:45:03.922Z,84.30
2017-09-25T16:47:31.588Z,84.90
2017-09-25T16:49:59.159Z,85.90
2017-09-25T16:52:26.807Z,86.20
2017-09-25T16:54:54.611Z,87.30
2017-09-25T16:57:22.272Z,87.10
2017-09-25T16:59:50.165Z,87.30
2017-09-25T17:02:18.090Z,87.40
2017-09-25T17:04:45.721Z,87.90
2017-09-25T17:07:13.290Z,88.50
2017-09-25T17:09:40.944Z,88.70
2017-09-25T17:12:08.518Z,88.90
2017-09-25T17:14:36.074Z,89.20
2017-09-25T17:17:03.931Z,89.30
2017-09-25T17:19:31.591Z,89.60
2017-09-25T17:21:59.259Z,89.70
2017-09-25T17:24:26.819Z,90.20
2017-09-25T17:26:54.474Z,90.10
2017-09-25T17:29:22.131Z,91.00
2017-09-25T17:31:49.799Z,91.30
2017-09-25T17:34:17.362Z,91.50
2017-09-25T17:36:44.995Z,91.60
2017-09-25T17:39:12.667Z,91.70
2017-09-25T17:41:40.247Z,92.00
2017-09-25T17:44:07.799Z,92.30
2017-09-25T17:46:36.282Z,92.40
2017-09-25T17:49:05.304Z,92.70
2017-09-25T17:51:33.622Z,93.00
2017-09-25T17:54:01.199Z,93.00
2017-09-25T17:56:28.756Z,93.10
2017-09-25T17:58:56.330Z,93.50
2017-09-25T18:01:24.646Z,93.70
2017-09-25T18:03:52.263Z,93.80
2017-09-25T18:06:19.818Z,93.80
2017-09-25T18:08:47.583Z,94.20
2017-09-25T18:11:15.958Z,93.90
2017-09-25T18:13:44.406Z,94.30
2017-09-25T18:16:11.964Z,94.50
2017-09-25T18:18:40.264Z,94.90
2017-09-25T18:21:07.835Z,94.80
2017-09-25T18:23:35.415Z,94.70
2017-09-25T18:26:03.746Z,95.50
2017-09-25T18:28:31.326Z,95.40
2017-09-25T18:30:58.886Z,95.40
2017-09-25T18:33:26.467Z,95.70
2017-09-25T18:35:54.983Z,95.80
2017-09-25T18:38:22.563Z,96.00
2017-09-25T18:40:50.151Z,96.30
2017-09-25T18:43:17.710Z,96.50
2017-09-25T18:45:48.947Z,96.60
2017-09-25T18:48:16.619Z,96.60
2017-09-25T18:50:44.990Z,96.80
2017-09-25T18:53:13.270Z,97.00
2017-09-25T18:55:40.857Z,97.10
2017-09-25T18:58:09.194Z,97.40
2017-09-25T19:00:36.782Z,97.40
2017-09-25T19:03:04.446Z,97.50
2017-09-25T19:05:32.027Z,97.70
2017-09-25T19:07:59.695Z,98.00
2017-09-25T19:10:28.130Z,97.60
2017-09-25T19:12:55.794Z,97.80
2017-09-25T19:15:23.460Z,98.10
2017-09-25T19:17:51.039Z,97.90
2017-09-25T19:20:19.395Z,98.30
2017-09-25T19:22:46.964Z,98.30
2017-09-25T19:25:14.535Z,98.20
2017-09-25T19:27:42.890Z,98.40
2017-09-25T19:30:10.557Z,98.40
2017-09-25T19:32:38.175Z,98.50
2017-09-25T19:35:05.767Z,98.40
2017-09-25T19:37:33.346Z,98.30
2017-09-25T19:40:01.684Z,98.40
2017-09-25T19:42:29.279Z,98.30
2017-09-25T19:44:56.843Z,98.50
2017-09-25T19:47:25.196Z,98.50
2017-09-25T19:49:53.212Z,98.90
2017-09-25T19:52:20.787Z,98.50
2017-09-25T19:54:58.259Z,98.50
2017-09-25T19:57:25.838Z,98.40
2017-09-25T19:59:53.395Z,98.50
2017-09-25T20:02:21.007Z,98.50
2017-09-25T20:04:48.594Z,98.80
2017-09-25T20:07:16.158Z,98.80
2017-09-25T20:09:43.734Z,98.80
2017-09-25T20:12:11.295Z,99.00
2017-09-25T20:27:59.967Z,99.00
2017-09-25T20:30:27.532Z,98.80
2017-09-25T20:32:55.090Z,99.00
2017-09-25T20:35:22.671Z,99.20
2017-09-25T20:37:51.015Z,99.60
2017-09-25T20:40:18.607Z,99.50
2017-09-25T20:42:48.766Z,99.70
2017-09-25T20:45:16.351Z,99.70
2017-09-25T20:47:43.916Z,99.50
2017-09-25T20:50:11.490Z,99.40
2017-09-25T20:52:39.051Z,99.20
2017-09-25T20:55:06.643Z,99.40
2017-09-25T20:57:34.975Z,99.90
2017-09-25T21:00:02.679Z,99.90
2017-09-25T21:02:31.007Z,99.90
2017-09-25T21:04:59.548Z,99.80
2017-09-25T21:07:27.106Z,99.90
2017-09-25T21:09:54.731Z,99.90
2017-09-25T21:12:22.291Z,99.90
2017-09-25T21:14:51.411Z,99.90
2017-09-25T21:17:19.734Z,99.90
2017-09-25T21:19:47.922Z,99.90
2017-09-25T21:22:15.483Z,99.90
2017-09-25T21:24:43.203Z,99.90
2017-09-25T21:27:17.098Z,99.90
2017-09-25T21:29:44.788Z,99.90
2017-09-25T21:32:12.966Z,99.90
2017-09-25T21:34:41.316Z,99.90
2017-09-25T21:37:08.883Z,99.90
2017-09-25T21:39:36.475Z,99.90
2017-09-25T21:42:04.039Z,99.90
2017-09-25T21:44:31.707Z,99.90
2017-09-25T21:46:59.267Z,99.90
2017-09-25T21:49:26.863Z,99.90
2017-09-25T21:51:55.189Z,99.90
2017-09-25T21:54:22.755Z,99.90
2017-09-25T21:56:50.446Z,99.90
2017-09-25T21:59:18.962Z,99.90
2017-09-25T22:01:46.543Z,99.90
2017-09-25T22:04:14.106Z,99.90
2017-09-25T22:06:41.691Z,99.90
2017-09-25T22:09:09.256Z,99.90
2017-09-25T22:11:36.834Z,99.90
2017-09-25T22:14:05.167Z,99.90
2017-09-25T22:16:32.747Z,99.90
2017-09-25T22:19:00.306Z,99.90
2017-09-25T22:21:27.975Z,99.90
2017-09-25T22:23:55.534Z,99.90
2017-09-25T22:26:23.178Z,99.90
2017-09-25T22:28:50.734Z,99.90
2017-09-25T22:31:18.399Z,99.90
2017-09-25T22:33:45.966Z,99.90
2017-09-25T22:36:13.555Z,99.90
2017-09-25T22:38:41.887Z,99.90
2017-09-25T22:41:09.462Z,99.90
2017-09-25T22:57:01.570Z,99.90
2017-09-25T22:59:29.135Z,99.90
2017-09-25T23:01:56.749Z,99.90
2017-09-25T23:04:24.311Z,99.90
2017-09-25T23:06:51.906Z,99.90
2017-09-25T23:09:22.304Z,99.90
2017-09-25T23:11:51.030Z,99.90
2017-09-25T23:14:19.301Z,99.90
2017-09-25T23:16:47.587Z,99.90
2017-09-25T23:19:15.175Z,99.90
2017-09-25T23:21:43.498Z,99.90
2017-09-25T23:24:11.075Z,99.90
2017-09-25T23:26:38.634Z,99.90
2017-09-25T23:29:07.011Z,99.90
2017-09-25T23:45:00.789Z,99.90
2017-09-25T23:47:28.366Z,99.90
2017-09-25T23:49:56.818Z,99.90
2017-09-25T23:52:25.194Z,99.90
2017-09-25T23:54:52.842Z,99.90
2017-09-25T23:57:20.398Z,99.90
2017-09-25T23:59:48.061Z,99.90
